createdAt,value
2019-03-08T00:00:21.292Z,40.36
2019-03-08T00:01:21.350Z,40.34
2019-03-08T00:02:21.292Z,40.35
2019-03-08T00:03:21.191Z,40.36
2019-03-08T00:04:21.288Z,40.37
2019-03-08T00:05:21.144Z,40.39
2019-03-08T00:06:21.274Z,40.37
2019-03-08T00:07:21.343Z,40.38
2019-03-08T00:08:21.208Z,40.36
2019-03-08T00:09:21.222Z,40.37
2019-03-08T00:10:21.377Z,40.37
2019-03-08T00:11:21.150Z,40.38
2019-03-08T00:12:21.208Z,40.38
2019-03-08T00:13:21.314Z,40.37
2019-03-08T00:14:21.144Z,40.38
2019-03-08T00:15:21.233Z,40.38
2019-03-08T00:16:21.364Z,40.38
2019-03-08T00:17:21.182Z,40.36
2019-03-08T00:18:21.259Z,40.38
2019-03-08T00:19:21.331Z,40.39
2019-03-08T00:20:21.218Z,40.4
2019-03-08T00:21:21.198Z,40.42
2019-03-08T00:22:21.628Z,40.41
2019-03-08T00:23:21.180Z,40.41
2019-03-08T00:24:21.217Z,40.4
2019-03-08T00:25:21.335Z,40.41
2019-03-08T00:26:21.201Z,40.39
2019-03-08T00:27:21.358Z,40.41
2019-03-08T00:28:21.343Z,40.41
2019-03-08T00:29:22.071Z,40.41
2019-03-08T00:30:21.218Z,40.41
2019-03-08T00:31:21.300Z,40.41
2019-03-08T00:32:21.168Z,40.39
2019-03-08T00:33:21.165Z,40.44
2019-03-08T00:34:21.346Z,40.44
2019-03-08T00:35:21.144Z,40.43
2019-03-08T00:36:21.212Z,40.43
2019-03-08T00:37:21.300Z,40.41
2019-03-08T00:38:21.153Z,40.42
2019-03-08T00:39:21.209Z,40.44
2019-03-08T00:40:21.330Z,40.41
2019-03-08T00:41:21.147Z,40.45
2019-03-08T00:42:21.302Z,40.42
2019-03-08T00:43:21.346Z,40.44
2019-03-08T00:44:21.133Z,40.45
2019-03-08T00:45:21.216Z,40.45
2019-03-08T00:46:21.345Z,40.41
2019-03-08T00:47:21.137Z,40.41
2019-03-08T00:48:21.259Z,40.42
2019-03-08T00:49:21.308Z,40.45
2019-03-08T00:50:21.168Z,40.42
2019-03-08T00:51:21.233Z,40.41
2019-03-08T00:52:21.330Z,40.41
2019-03-08T00:53:21.201Z,40.43
2019-03-08T00:54:21.221Z,40.42
2019-03-08T00:55:21.329Z,40.42
2019-03-08T00:56:21.147Z,40.42
2019-03-08T00:57:21.320Z,40.38
2019-03-08T00:58:21.310Z,40.43
2019-03-08T00:59:21.171Z,40.41
2019-03-08T01:00:21.180Z,40.49
2019-03-08T01:01:21.320Z,40.44
2019-03-08T01:02:21.121Z,40.46
2019-03-08T01:03:21.301Z,40.43
2019-03-08T01:04:21.311Z,40.46
2019-03-08T01:05:21.168Z,40.41
2019-03-08T01:06:21.238Z,40.43
2019-03-08T01:07:21.647Z,40.46
2019-03-08T01:08:21.199Z,40.43
2019-03-08T01:09:21.233Z,40.41
2019-03-08T01:10:21.354Z,40.43
2019-03-08T01:11:21.485Z,40.44
2019-03-08T01:12:21.409Z,40.45
2019-03-08T01:13:21.353Z,40.43
2019-03-08T01:14:21.170Z,40.44
2019-03-08T01:15:21.239Z,40.41
2019-03-08T01:16:21.166Z,40.46
2019-03-08T01:17:21.167Z,40.44
2019-03-08T01:18:21.247Z,40.44
2019-03-08T01:19:21.369Z,40.45
2019-03-08T01:20:21.145Z,40.43
2019-03-08T01:21:21.235Z,40.44
2019-03-08T01:22:21.429Z,40.43
2019-03-08T01:23:21.169Z,40.45
2019-03-08T01:24:21.224Z,40.45
2019-03-08T01:25:21.647Z,40.43
2019-03-08T01:26:21.124Z,40.42
2019-03-08T01:27:21.227Z,40.43
2019-03-08T01:28:21.396Z,40.45
2019-03-08T01:29:21.186Z,40.46
2019-03-08T01:30:21.262Z,40.39
2019-03-08T01:31:21.314Z,40.45
2019-03-08T01:32:21.179Z,40.43
2019-03-08T01:33:21.347Z,40.46
2019-03-08T01:34:21.341Z,40.45
2019-03-08T01:35:21.410Z,40.44
2019-03-08T01:36:21.222Z,40.43
2019-03-08T01:37:21.403Z,40.4
2019-03-08T01:38:21.230Z,40.41
2019-03-08T01:39:21.314Z,40.41
2019-03-08T01:40:21.425Z,40.39
2019-03-08T01:41:21.196Z,40.41
2019-03-08T01:42:21.298Z,40.4
2019-03-08T01:43:21.571Z,40.42
2019-03-08T01:44:21.201Z,40.45
2019-03-08T01:45:21.217Z,40.39
2019-03-08T01:46:21.514Z,40.41
2019-03-08T01:47:21.227Z,40.45
2019-03-08T01:48:21.205Z,40.43
2019-03-08T01:49:21.352Z,40.43
2019-03-08T01:50:21.127Z,40.43
2019-03-08T01:51:21.525Z,40.47
2019-03-08T01:52:21.355Z,40.45
2019-03-08T01:53:21.129Z,40.48
2019-03-08T01:54:21.282Z,40.47
2019-03-08T01:55:21.371Z,40.47
2019-03-08T01:56:21.438Z,40.45
2019-03-08T01:57:21.199Z,40.48
2019-03-08T01:58:21.337Z,40.46
2019-03-08T01:59:21.481Z,40.46
2019-03-08T02:00:21.198Z,40.43
2019-03-08T02:01:21.316Z,40.43
2019-03-08T02:02:21.182Z,40.44
2019-03-08T02:03:21.219Z,40.42
2019-03-08T02:04:21.336Z,40.45
2019-03-08T02:05:21.162Z,40.46
2019-03-08T02:06:21.204Z,40.42
2019-03-08T02:07:21.641Z,40.42
2019-03-08T02:08:21.133Z,40.41
2019-03-08T02:09:21.307Z,40.4
2019-03-08T02:10:21.339Z,40.46
2019-03-08T02:11:21.446Z,40.43
2019-03-08T02:12:21.195Z,40.46
2019-03-08T02:13:21.357Z,40.45
2019-03-08T02:14:21.169Z,40.46
2019-03-08T02:15:21.596Z,40.45
2019-03-08T02:16:21.401Z,40.44
2019-03-08T02:17:21.143Z,40.43
2019-03-08T02:18:21.210Z,40.42
2019-03-08T02:19:21.300Z,40.44
2019-03-08T02:20:21.114Z,40.49
2019-03-08T02:21:21.310Z,40.47
2019-03-08T02:22:21.437Z,40.45
2019-03-08T02:23:21.448Z,40.45
2019-03-08T02:24:21.197Z,40.46
2019-03-08T02:25:21.299Z,40.44
2019-03-08T02:26:21.224Z,40.47
2019-03-08T02:27:21.223Z,40.46
2019-03-08T02:28:21.315Z,40.49
2019-03-08T02:29:21.197Z,40.44
2019-03-08T02:30:21.302Z,40.48
2019-03-08T02:31:21.918Z,40.49
2019-03-08T02:32:21.148Z,40.47
2019-03-08T02:33:21.223Z,40.42
2019-03-08T02:34:21.408Z,40.46
2019-03-08T02:35:21.163Z,40.48
2019-03-08T02:36:21.322Z,40.46
2019-03-08T02:37:21.499Z,40.42
2019-03-08T02:38:21.320Z,40.46
2019-03-08T02:39:22.790Z,40.46
2019-03-08T02:40:21.362Z,40.45
2019-03-08T02:41:21.149Z,40.43
2019-03-08T02:42:21.168Z,40.46
2019-03-08T02:43:21.347Z,40.48
2019-03-08T02:44:21.147Z,40.44
2019-03-08T02:45:21.256Z,40.47
2019-03-08T02:46:21.418Z,40.48
2019-03-08T02:47:21.415Z,40.47
2019-03-08T02:48:21.205Z,40.45
2019-03-08T02:49:21.369Z,40.46
2019-03-08T02:50:21.213Z,40.49
2019-03-08T02:51:21.202Z,40.44
2019-03-08T02:52:21.255Z,40.46
2019-03-08T02:53:21.150Z,40.45
2019-03-08T02:54:21.203Z,40.47
2019-03-08T02:55:21.268Z,40.48
2019-03-08T02:56:21.123Z,40.44
2019-03-08T02:57:21.287Z,40.45
2019-03-08T02:58:21.295Z,40.44
2019-03-08T02:59:21.146Z,40.48
2019-03-08T03:00:21.319Z,40.47
2019-03-08T03:01:21.315Z,40.46
2019-03-08T03:02:21.165Z,40.46
2019-03-08T03:03:21.532Z,40.49
2019-03-08T03:04:21.525Z,40.46
2019-03-08T03:05:21.089Z,40.48
2019-03-08T03:06:21.174Z,40.45
2019-03-08T03:07:21.041Z,40.43
2019-03-08T03:08:21.144Z,40.45
2019-03-08T03:09:21.379Z,40.46
2019-03-08T03:10:21.261Z,40.45
2019-03-08T03:11:21.383Z,40.46
2019-03-08T03:12:21.277Z,40.46
2019-03-08T03:13:21.061Z,40.47
2019-03-08T03:14:21.179Z,40.47
2019-03-08T03:15:21.172Z,40.45
2019-03-08T03:16:21.003Z,40.45
2019-03-08T03:17:21.210Z,40.48
2019-03-08T03:18:21.365Z,40.47
2019-03-08T03:19:21.075Z,40.47
2019-03-08T03:20:21.177Z,40.45
2019-03-08T03:21:21.319Z,40.43
2019-03-08T03:22:21.156Z,40.46
2019-03-08T03:23:21.219Z,40.46
2019-03-08T03:24:21.195Z,40.5
2019-03-08T03:25:21.091Z,40.46
2019-03-08T03:26:21.153Z,40.46
2019-03-08T03:27:21.498Z,40.48
2019-03-08T03:28:21.127Z,40.48
2019-03-08T03:29:21.173Z,40.46
2019-03-08T03:30:21.302Z,40.47
2019-03-08T03:31:21.146Z,40.47
2019-03-08T03:32:21.174Z,40.49
2019-03-08T03:33:21.233Z,40.47
2019-03-08T03:34:21.030Z,40.48
2019-03-08T03:35:21.452Z,40.49
2019-03-08T03:36:21.183Z,40.47
2019-03-08T03:37:21.043Z,40.49
2019-03-08T03:38:21.182Z,40.46
2019-03-08T03:39:21.215Z,40.46
2019-03-08T03:40:21.053Z,40.5
2019-03-08T03:41:21.165Z,40.48
2019-03-08T03:42:21.291Z,40.48
2019-03-08T03:43:21.305Z,40.5
2019-03-08T03:44:21.158Z,40.5
2019-03-08T03:45:21.196Z,40.49
2019-03-08T03:46:21.031Z,40.47
2019-03-08T03:47:21.416Z,40.52
2019-03-08T03:48:21.212Z,40.5
2019-03-08T03:49:21.055Z,40.5
2019-03-08T03:50:21.232Z,40.47
2019-03-08T03:51:21.463Z,40.47
2019-03-08T03:52:21.190Z,40.46
2019-03-08T03:53:21.204Z,40.5
2019-03-08T03:54:21.235Z,40.51
2019-03-08T03:55:21.036Z,40.51
2019-03-08T03:56:21.171Z,40.45
2019-03-08T03:57:21.359Z,40.47
2019-03-08T03:58:21.066Z,40.5
2019-03-08T03:59:21.316Z,40.5
2019-03-08T04:00:21.246Z,40.48
2019-03-08T04:01:21.151Z,40.47
2019-03-08T04:02:22.363Z,40.48
2019-03-08T04:03:21.228Z,40.49
2019-03-08T04:04:21.321Z,40.45
2019-03-08T04:05:21.177Z,40.46
2019-03-08T04:06:21.282Z,40.48
2019-03-08T04:07:21.685Z,40.5
2019-03-08T04:08:21.186Z,40.5
2019-03-08T04:09:21.038Z,40.5
2019-03-08T04:10:21.082Z,40.49
2019-03-08T04:11:21.202Z,40.46
2019-03-08T04:12:21.298Z,40.51
2019-03-08T04:13:21.080Z,40.48
2019-03-08T04:14:21.386Z,40.51
2019-03-08T04:15:21.046Z,40.49
2019-03-08T04:16:21.222Z,40.5
2019-03-08T04:17:21.252Z,40.48
2019-03-08T04:18:21.124Z,40.51
2019-03-08T04:19:21.123Z,40.47
2019-03-08T04:20:21.251Z,40.52
2019-03-08T04:21:21.139Z,40.5
2019-03-08T04:22:21.133Z,40.49
2019-03-08T04:23:21.265Z,40.51
2019-03-08T04:24:21.074Z,40.51
2019-03-08T04:25:21.103Z,40.5
2019-03-08T04:26:21.219Z,40.47
2019-03-08T04:27:21.091Z,40.5
2019-03-08T04:28:21.243Z,40.49
2019-03-08T04:29:21.287Z,40.5
2019-03-08T04:30:21.121Z,40.48
2019-03-08T04:31:21.238Z,40.51
2019-03-08T04:32:21.188Z,40.51
2019-03-08T04:33:21.062Z,40.49
2019-03-08T04:34:21.061Z,40.49
2019-03-08T04:35:21.555Z,40.49
2019-03-08T04:36:21.022Z,40.5
2019-03-08T04:37:21.101Z,40.46
2019-03-08T04:38:21.238Z,40.47
2019-03-08T04:39:21.706Z,40.46
2019-03-08T04:40:21.219Z,40.43
2019-03-08T04:41:21.190Z,40.45
2019-03-08T04:42:21.011Z,40.48
2019-03-08T04:43:21.060Z,40.47
2019-03-08T04:44:21.233Z,40.48
2019-03-08T04:45:21.094Z,40.48
2019-03-08T04:46:21.095Z,40.45
2019-03-08T04:47:21.454Z,40.46
2019-03-08T04:48:21.278Z,40.45
2019-03-08T04:49:21.098Z,40.43
2019-03-08T04:50:21.278Z,40.45
2019-03-08T04:51:21.275Z,40.41
2019-03-08T04:52:21.179Z,40.39
2019-03-08T04:53:21.244Z,40.4
2019-03-08T04:54:21.337Z,40.35
2019-03-08T04:55:21.617Z,40.4
2019-03-08T04:56:21.211Z,40.41
2019-03-08T04:57:21.499Z,40.41
2019-03-08T04:58:21.119Z,40.43
2019-03-08T04:59:21.192Z,40.39
2019-03-08T05:00:21.228Z,40.39
2019-03-08T05:01:21.046Z,40.38
2019-03-08T05:02:21.179Z,40.37
2019-03-08T05:03:21.570Z,40.37
2019-03-08T05:04:21.150Z,40.34
2019-03-08T05:05:21.439Z,40.31
2019-03-08T05:06:21.334Z,40.32
2019-03-08T05:07:21.044Z,40.32
2019-03-08T05:08:21.154Z,40.32
2019-03-08T05:09:21.236Z,40.35
2019-03-08T05:10:21.178Z,40.33
2019-03-08T05:11:21.423Z,40.31
2019-03-08T05:12:21.217Z,40.27
2019-03-08T05:13:21.007Z,40.32
2019-03-08T05:14:21.104Z,40.29
2019-03-08T05:15:21.303Z,40.3
2019-03-08T05:16:21.013Z,40.33
2019-03-08T05:17:21.123Z,40.3
2019-03-08T05:18:21.216Z,40.33
2019-03-08T05:19:21.480Z,40.33
2019-03-08T05:20:21.142Z,40.32
2019-03-08T05:21:21.164Z,40.29
2019-03-08T05:22:21.041Z,40.3
2019-03-08T05:23:21.124Z,40.3
2019-03-08T05:24:21.287Z,40.33
2019-03-08T05:25:21.022Z,40.28
2019-03-08T05:26:21.154Z,40.2
2019-03-08T05:27:21.537Z,40.31
2019-03-08T05:28:21.040Z,40.29
2019-03-08T05:29:24.437Z,40.31
2019-03-08T05:30:21.156Z,40.23
2019-03-08T05:31:20.989Z,40.34
2019-03-08T05:32:21.155Z,40.29
2019-03-08T05:33:21.151Z,40.31
2019-03-08T05:34:20.979Z,40.35
2019-03-08T05:35:21.494Z,40.35
2019-03-08T05:36:21.168Z,40.36
2019-03-08T05:37:20.946Z,40.31
2019-03-08T05:38:21.091Z,40.33
2019-03-08T05:39:21.318Z,40.31
2019-03-08T05:40:21.043Z,40.31
2019-03-08T05:41:21.116Z,40.27
2019-03-08T05:42:21.197Z,40.3
2019-03-08T05:43:21.246Z,40.32
2019-03-08T05:44:21.141Z,40.25
2019-03-08T05:45:21.162Z,40.24
2019-03-08T05:46:20.998Z,40.28
2019-03-08T05:47:21.107Z,40.29
2019-03-08T05:48:21.201Z,40.27
2019-03-08T05:49:21.021Z,40.25
2019-03-08T05:50:21.123Z,40.26
2019-03-08T05:51:21.506Z,40.23
2019-03-08T05:52:20.975Z,40.23
2019-03-08T05:53:21.121Z,40.2
2019-03-08T05:54:21.171Z,40.22
2019-03-08T05:55:21.024Z,40.23
2019-03-08T05:56:21.127Z,40.24
2019-03-08T05:57:21.171Z,40.21
2019-03-08T05:58:20.949Z,40.17
2019-03-08T05:59:21.100Z,40.24
2019-03-08T06:00:21.196Z,40.22
2019-03-08T06:01:20.988Z,40.23
2019-03-08T06:02:21.123Z,40.24
2019-03-08T06:03:21.287Z,40.23
2019-03-08T06:04:21.025Z,40.19
2019-03-08T06:05:21.151Z,40.17
2019-03-08T06:06:21.475Z,40.17
2019-03-08T06:07:21.130Z,40.16
2019-03-08T06:08:21.124Z,40.15
2019-03-08T06:09:21.319Z,40.11
2019-03-08T06:10:21.026Z,40.13
2019-03-08T06:11:21.159Z,40.13
2019-03-08T06:12:21.327Z,40.15
2019-03-08T06:13:21.129Z,40.13
2019-03-08T06:14:21.364Z,40.14
2019-03-08T06:15:21.291Z,40.13
2019-03-08T06:16:21.177Z,40.17
2019-03-08T06:17:21.134Z,39.13
2019-03-08T06:18:21.313Z,38.91
2019-03-08T06:19:21.041Z,38.9
2019-03-08T06:20:21.189Z,38.71
2019-03-08T06:21:21.311Z,38.62
2019-03-08T06:22:21.320Z,38.51
2019-03-08T06:23:21.123Z,38.53
2019-03-08T06:24:21.275Z,38.6
2019-03-08T06:25:21.001Z,38.48
2019-03-08T06:26:21.408Z,38.33
2019-03-08T06:27:21.177Z,38.38
2019-03-08T06:28:20.971Z,38.36
2019-03-08T06:29:21.186Z,38.32
2019-03-08T06:30:21.480Z,38.51
2019-03-08T06:31:21.081Z,38.28
2019-03-08T06:32:21.106Z,38.25
2019-03-08T06:33:21.287Z,38.23
2019-03-08T06:34:21.025Z,38.23
2019-03-08T06:35:21.180Z,38.4
2019-03-08T06:36:21.270Z,38.49
2019-03-08T06:37:21.145Z,38.53
2019-03-08T06:38:21.181Z,38.65
2019-03-08T06:39:21.078Z,38.83
2019-03-08T06:40:21.206Z,38.79
2019-03-08T06:41:21.269Z,38.67
2019-03-08T06:42:21.140Z,38.81
2019-03-08T06:43:21.420Z,38.79
2019-03-08T06:44:21.525Z,38.73
2019-03-08T06:45:21.218Z,38.66
2019-03-08T06:46:21.254Z,38.75
2019-03-08T06:47:21.308Z,38.71
2019-03-08T06:48:21.169Z,38.71
2019-03-08T06:49:21.193Z,38.7
2019-03-08T06:50:21.291Z,38.71
2019-03-08T06:51:21.327Z,38.71
2019-03-08T06:52:21.142Z,38.72
2019-03-08T06:53:21.444Z,38.74
2019-03-08T06:54:21.174Z,38.76
2019-03-08T06:55:21.438Z,38.74
2019-03-08T06:56:21.158Z,38.72
2019-03-08T06:57:21.228Z,38.79
2019-03-08T06:58:21.276Z,38.76
2019-03-08T06:59:21.149Z,38.79
2019-03-08T07:00:21.179Z,38.8
2019-03-08T07:01:21.509Z,38.78
2019-03-08T07:02:21.157Z,38.78
2019-03-08T07:03:21.222Z,38.79
2019-03-08T07:04:21.061Z,38.82
2019-03-08T07:05:21.060Z,38.83
2019-03-08T07:06:21.452Z,38.83
2019-03-08T07:07:21.234Z,38.82
2019-03-08T07:08:21.261Z,38.82
2019-03-08T07:09:21.455Z,38.81
2019-03-08T07:10:21.107Z,38.86
2019-03-08T07:11:21.221Z,38.85
2019-03-08T07:12:21.327Z,38.87
2019-03-08T07:13:21.181Z,38.87
2019-03-08T07:14:21.185Z,38.84
2019-03-08T07:15:21.042Z,38.86
2019-03-08T07:16:21.130Z,38.87
2019-03-08T07:17:21.513Z,38.85
2019-03-08T07:18:21.044Z,38.88
2019-03-08T07:19:21.231Z,38.88
2019-03-08T07:20:21.195Z,38.88
2019-03-08T07:21:21.112Z,38.92
2019-03-08T07:22:21.184Z,38.88
2019-03-08T07:23:28.306Z,38.9
2019-03-08T07:24:21.086Z,38.94
2019-03-08T07:25:21.211Z,38.89
2019-03-08T07:26:21.222Z,38.92
2019-03-08T07:27:21.160Z,38.92
2019-03-08T07:28:21.234Z,38.92
2019-03-08T07:29:21.255Z,38.95
2019-03-08T07:30:21.209Z,38.94
2019-03-08T07:31:21.243Z,39.01
2019-03-08T07:32:21.066Z,39.03
2019-03-08T07:33:21.323Z,38.98
2019-03-08T07:34:21.226Z,39
2019-03-08T07:35:21.079Z,38.98
2019-03-08T07:36:21.188Z,39.01
2019-03-08T07:37:21.316Z,39.01
2019-03-08T07:38:21.251Z,39.02
2019-03-08T07:39:21.216Z,39
2019-03-08T07:40:21.269Z,39.03
2019-03-08T07:41:21.069Z,39.03
2019-03-08T07:42:21.182Z,39.04
2019-03-08T07:43:21.095Z,39.04
2019-03-08T07:44:21.154Z,39.06
2019-03-08T07:45:21.188Z,39.04
2019-03-08T07:46:21.061Z,39.05
2019-03-08T07:47:21.106Z,39.06
2019-03-08T07:48:21.223Z,39.06
2019-03-08T07:49:22.766Z,39.05
2019-03-08T07:50:21.136Z,39.06
2019-03-08T07:51:21.094Z,39.1
2019-03-08T07:52:21.174Z,39.06
2019-03-08T07:53:21.146Z,39.07
2019-03-08T07:54:21.310Z,39.05
2019-03-08T07:55:21.054Z,39.08
2019-03-08T07:56:21.190Z,39.04
2019-03-08T07:57:21.228Z,39.08
2019-03-08T07:58:21.115Z,39.1
2019-03-08T07:59:21.199Z,39.08
2019-03-08T08:00:21.053Z,39.09
2019-03-08T08:01:21.110Z,39.09
2019-03-08T08:02:21.195Z,39.1
2019-03-08T08:03:21.075Z,39.11
2019-03-08T08:04:21.181Z,39.09
2019-03-08T08:05:21.305Z,39.1
2019-03-08T08:06:21.095Z,39.11
2019-03-08T08:07:21.121Z,39.08
2019-03-08T08:08:21.247Z,39.12
2019-03-08T08:09:21.095Z,39.09
2019-03-08T08:10:21.192Z,39.13
2019-03-08T08:11:21.585Z,39.11
2019-03-08T08:12:21.133Z,39.1
2019-03-08T08:13:21.505Z,39.11
2019-03-08T08:14:21.043Z,39.09
2019-03-08T08:15:21.143Z,39.1
2019-03-08T08:16:21.237Z,39.1
2019-03-08T08:17:21.023Z,39.12
2019-03-08T08:18:21.145Z,39.12
2019-03-08T08:19:21.217Z,39.14
2019-03-08T08:20:21.282Z,39.99
2019-03-08T08:21:21.101Z,39.49
2019-03-08T08:22:21.081Z,39.77
2019-03-08T08:23:21.235Z,39.95
2019-03-08T08:24:20.966Z,39.97
2019-03-08T08:25:21.046Z,39.88
2019-03-08T08:26:21.219Z,39.89
2019-03-08T08:27:20.990Z,39.92
2019-03-08T08:28:21.063Z,39.92
2019-03-08T08:29:21.415Z,39.96
2019-03-08T08:30:21.073Z,40.05
2019-03-08T08:31:21.099Z,40.04
2019-03-08T08:32:21.229Z,40.18
2019-03-08T08:33:20.999Z,40.11
2019-03-08T08:34:22.167Z,40.06
2019-03-08T08:35:21.181Z,40.2
2019-03-08T08:36:21.325Z,40.36
2019-03-08T08:37:21.473Z,40.15
2019-03-08T08:38:21.240Z,40.26
2019-03-08T08:39:21.003Z,40.15
2019-03-08T08:40:20.989Z,40.52
2019-03-08T08:41:21.198Z,40.48
2019-03-08T08:42:20.988Z,40.31
2019-03-08T08:43:21.001Z,40.62
2019-03-08T08:44:21.132Z,40.88
2019-03-08T08:45:21.118Z,40.91
2019-03-08T08:46:21.053Z,40.62
2019-03-08T08:47:21.124Z,41.09
2019-03-08T08:48:21.038Z,40.29
2019-03-08T08:49:21.024Z,40.08
2019-03-08T08:50:21.112Z,40.58
2019-03-08T08:51:20.958Z,40.11
2019-03-08T08:52:21.025Z,40.37
2019-03-08T08:53:21.383Z,40.04
2019-03-08T08:54:20.915Z,40.35
2019-03-08T08:55:20.956Z,40.43
2019-03-08T08:56:21.099Z,40.26
2019-03-08T08:57:21.270Z,40.08
2019-03-08T08:58:21.094Z,40.09
2019-03-08T08:59:21.087Z,40.05
2019-03-08T09:00:21.101Z,40.5
2019-03-08T09:01:21.131Z,40.17
2019-03-08T09:02:21.140Z,40.6
2019-03-08T09:03:21.136Z,40.12
2019-03-08T09:04:21.077Z,40.31
2019-03-08T09:05:21.097Z,40.35
2019-03-08T09:06:21.126Z,40.51
2019-03-08T09:07:21.167Z,40.6
2019-03-08T09:08:21.155Z,40.19
2019-03-08T09:09:21.501Z,40.25
2019-03-08T09:10:20.971Z,40.32
2019-03-08T09:11:21.094Z,40.25
2019-03-08T09:12:20.959Z,40.17
2019-03-08T09:13:21.123Z,40.6
2019-03-08T09:14:21.142Z,40.61
2019-03-08T09:15:20.906Z,40.35
2019-03-08T09:16:20.963Z,40.42
2019-03-08T09:17:21.349Z,40.31
2019-03-08T09:18:21.149Z,40.44
2019-03-08T09:19:20.920Z,40.4
2019-03-08T09:20:21.440Z,40.05
2019-03-08T09:21:21.144Z,40.2
2019-03-08T09:22:20.966Z,40.11
2019-03-08T09:23:21.099Z,40.22
2019-03-08T09:24:21.239Z,40.09
2019-03-08T09:25:21.409Z,40.45
2019-03-08T09:26:21.198Z,40.2
2019-03-08T09:27:20.997Z,40.54
2019-03-08T09:28:21.138Z,40.47
2019-03-08T09:29:21.079Z,40.28
2019-03-08T09:30:20.909Z,40.03
2019-03-08T09:31:20.968Z,40.35
2019-03-08T09:32:21.117Z,40.07
2019-03-08T09:33:21.262Z,40.63
2019-03-08T09:34:21.005Z,40.12
2019-03-08T09:35:21.140Z,40.65
2019-03-08T09:36:21.019Z,40.69
2019-03-08T09:37:20.962Z,40.29
2019-03-08T09:38:21.145Z,40.08
2019-03-08T09:39:21.282Z,39.86
2019-03-08T09:40:21.070Z,39.79
2019-03-08T09:41:21.316Z,39.9
2019-03-08T09:42:21.221Z,39.98
2019-03-08T09:43:20.959Z,39.9
2019-03-08T09:44:21.077Z,39.65
2019-03-08T09:45:21.226Z,39.77
2019-03-08T09:46:20.945Z,39.76
2019-03-08T09:47:21.075Z,39.7
2019-03-08T09:48:20.870Z,39.85
2019-03-08T09:49:21.273Z,39.63
2019-03-08T09:50:21.027Z,39.63
2019-03-08T09:51:21.214Z,39.56
2019-03-08T09:52:21.012Z,39.56
2019-03-08T09:53:21.042Z,39.69
2019-03-08T09:54:21.196Z,39.77
2019-03-08T09:55:21.064Z,39.89
2019-03-08T09:56:21.101Z,39.93
2019-03-08T09:57:21.329Z,39.91
2019-03-08T09:58:21.034Z,39.92
2019-03-08T09:59:21.127Z,39.86
2019-03-08T10:00:21.124Z,39.91
2019-03-08T10:01:21.038Z,39.9
2019-03-08T10:02:21.084Z,39.88
2019-03-08T10:03:21.130Z,39.89
2019-03-08T10:04:21.073Z,39.87
2019-03-08T10:05:21.284Z,39.85
2019-03-08T10:06:20.892Z,39.83
2019-03-08T10:07:21.114Z,39.87
2019-03-08T10:08:21.154Z,39.82
2019-03-08T10:09:20.939Z,39.78
2019-03-08T10:10:21.342Z,39.78
2019-03-08T10:11:21.122Z,39.76
2019-03-08T10:12:21.099Z,39.74
2019-03-08T10:13:21.345Z,39.75
2019-03-08T10:14:21.120Z,39.75
2019-03-08T10:15:20.981Z,39.73
2019-03-08T10:16:20.992Z,39.72
2019-03-08T10:17:21.118Z,39.72
2019-03-08T10:18:20.954Z,39.7
2019-03-08T10:19:21.023Z,39.69
2019-03-08T10:20:21.069Z,39.65
2019-03-08T10:21:21.196Z,39.69
2019-03-08T10:22:21.107Z,39.66
2019-03-08T10:23:21.158Z,39.69
2019-03-08T10:24:21.039Z,39.66
2019-03-08T10:25:20.988Z,39.62
2019-03-08T10:26:21.087Z,39.65
2019-03-08T10:27:21.141Z,39.63
2019-03-08T10:28:21.023Z,39.59
2019-03-08T10:29:21.356Z,39.61
2019-03-08T10:30:20.899Z,39.57
2019-03-08T10:31:20.927Z,39.59
2019-03-08T10:32:21.119Z,39.57
2019-03-08T10:33:21.178Z,39.58
2019-03-08T10:34:20.957Z,39.56
2019-03-08T10:35:24.336Z,39.55
2019-03-08T10:36:21.107Z,39.53
2019-03-08T10:37:21.211Z,39.5
2019-03-08T10:38:23.169Z,39.5
2019-03-08T10:39:20.900Z,39.49
2019-03-08T10:40:20.996Z,39.49
2019-03-08T10:41:21.113Z,39.52
2019-03-08T10:42:20.987Z,39.49
2019-03-08T10:43:20.975Z,39.46
2019-03-08T10:44:21.110Z,39.45
2019-03-08T10:45:21.164Z,39.46
2019-03-08T10:46:20.983Z,39.49
2019-03-08T10:47:21.057Z,39.48
2019-03-08T10:48:21.184Z,39.41
2019-03-08T10:49:21.138Z,39.47
2019-03-08T10:50:21.180Z,39.42
2019-03-08T10:51:20.949Z,39.45
2019-03-08T10:52:21.109Z,39.42
2019-03-08T10:53:21.325Z,39.43
2019-03-08T10:54:21.013Z,39.42
2019-03-08T10:55:20.995Z,39.41
2019-03-08T10:56:21.070Z,39.42
2019-03-08T10:57:20.983Z,39.44
2019-03-08T10:58:21.002Z,39.42
2019-03-08T10:59:21.088Z,39.41
2019-03-08T11:00:20.925Z,39.38
2019-03-08T11:01:21.280Z,39.37
2019-03-08T11:02:21.177Z,39.35
2019-03-08T11:03:20.981Z,39.34
2019-03-08T11:04:20.982Z,39.36
2019-03-08T11:05:21.235Z,39.37
2019-03-08T11:06:21.013Z,39.33
2019-03-08T11:07:20.994Z,39.33
2019-03-08T11:08:30.178Z,39.33
2019-03-08T11:09:21.335Z,39.3
2019-03-08T11:10:21.023Z,39.33
2019-03-08T11:11:21.362Z,39.3
2019-03-08T11:12:20.997Z,39.29
2019-03-08T11:13:20.942Z,39.32
2019-03-08T11:14:21.119Z,39.28
2019-03-08T11:15:25.012Z,39.28
2019-03-08T11:16:20.948Z,39.28
2019-03-08T11:17:21.495Z,39.25
2019-03-08T11:18:21.011Z,39.23
2019-03-08T11:19:21.074Z,39.24
2019-03-08T11:20:21.140Z,39.25
2019-03-08T11:21:20.963Z,39.24
2019-03-08T11:22:21.134Z,39.28
2019-03-08T11:23:21.139Z,39.23
2019-03-08T11:24:21.018Z,39.24
2019-03-08T11:25:21.270Z,39.24
2019-03-08T11:26:21.113Z,39.21
2019-03-08T11:27:20.955Z,39.25
2019-03-08T11:28:21.575Z,39.21
2019-03-08T11:29:21.083Z,39.29
2019-03-08T11:30:21.999Z,37.86
2019-03-08T11:31:20.956Z,38.85
2019-03-08T11:32:23.587Z,38.9
2019-03-08T11:33:21.310Z,39.4
2019-03-08T11:34:21.078Z,39.43
2019-03-08T11:35:20.983Z,39.13
2019-03-08T11:36:21.205Z,38.89
2019-03-08T11:37:20.973Z,39.28
2019-03-08T11:38:22.876Z,39.2
2019-03-08T11:39:21.085Z,39.25
2019-03-08T11:40:20.962Z,39.45
2019-03-08T11:41:21.262Z,39.43
2019-03-08T11:42:21.201Z,39.43
2019-03-08T11:43:21.040Z,39.54
2019-03-08T11:44:21.096Z,39.54
2019-03-08T11:45:21.089Z,39.54
2019-03-08T11:46:20.937Z,39.6
2019-03-08T11:47:21.088Z,39.62
2019-03-08T11:48:21.093Z,39.73
2019-03-08T11:49:21.065Z,39.63
2019-03-08T11:50:21.058Z,39.37
2019-03-08T11:51:21.106Z,39.31
2019-03-08T11:52:20.942Z,39.33
2019-03-08T11:53:21.021Z,39.25
2019-03-08T11:54:21.194Z,39.28
2019-03-08T11:55:20.900Z,39.19
2019-03-08T11:56:21.018Z,39.29
2019-03-08T11:57:21.063Z,39.18
2019-03-08T11:58:21.398Z,39.31
2019-03-08T11:59:21.019Z,39.25
2019-03-08T12:00:21.016Z,39.37
2019-03-08T12:01:21.131Z,39.33
2019-03-08T12:02:21.007Z,39.36
2019-03-08T12:03:21.011Z,39.31
2019-03-08T12:04:21.146Z,39.31
2019-03-08T12:05:20.960Z,39.24
2019-03-08T12:06:21.135Z,39.3
2019-03-08T12:07:21.132Z,39.25
2019-03-08T12:08:20.894Z,39.28
2019-03-08T12:09:21.028Z,39.23
2019-03-08T12:10:20.980Z,39.28
2019-03-08T12:11:20.970Z,39.22
2019-03-08T12:12:21.126Z,39.25
2019-03-08T12:13:20.832Z,39.22
2019-03-08T12:14:21.396Z,39.28
2019-03-08T12:15:20.950Z,39.34
2019-03-08T12:16:21.571Z,39.31
2019-03-08T12:17:20.968Z,39.43
2019-03-08T12:18:21.110Z,39.47
2019-03-08T12:19:20.890Z,39.47
2019-03-08T12:20:20.969Z,39.47
2019-03-08T12:21:21.069Z,39.51
2019-03-08T12:22:21.455Z,39.53
2019-03-08T12:23:20.964Z,39.51
2019-03-08T12:24:21.013Z,39.55
2019-03-08T12:25:21.135Z,39.58
2019-03-08T12:26:21.002Z,39.67
2019-03-08T12:27:21.104Z,39.66
2019-03-08T12:28:21.136Z,39.52
2019-03-08T12:29:20.964Z,39.49
2019-03-08T12:30:21.203Z,39.52
2019-03-08T12:31:21.108Z,39.54
2019-03-08T12:32:20.962Z,39.51
2019-03-08T12:33:20.951Z,39.52
2019-03-08T12:34:21.128Z,39.55
2019-03-08T12:35:20.922Z,39.57
2019-03-08T12:36:20.956Z,39.4
2019-03-08T12:37:21.154Z,39.51
2019-03-08T12:38:21.364Z,39.51
2019-03-08T12:39:20.973Z,39.55
2019-03-08T12:40:21.079Z,39.33
2019-03-08T12:41:20.975Z,39.31
2019-03-08T12:42:21.086Z,39.26
2019-03-08T12:43:21.096Z,39.24
2019-03-08T12:44:21.104Z,39.05
2019-03-08T12:45:20.906Z,39.07
2019-03-08T12:46:21.320Z,39
2019-03-08T12:47:21.108Z,39.11
2019-03-08T12:48:24.339Z,39.02
2019-03-08T12:49:20.936Z,39.02
2019-03-08T12:50:21.058Z,38.99
2019-03-08T12:51:21.046Z,39.06
2019-03-08T12:52:20.994Z,38.98
2019-03-08T12:53:21.060Z,38.94
2019-03-08T12:54:21.175Z,39.11
2019-03-08T12:55:21.093Z,39.19